Time;durP1;ratioP1;P1;durP2;ratioP2;P2;SDS_P1;SDS_P2;PMS_P1;PMS_P2;Temp;Humidity;BMP_temperature;BMP_pressure;BME280_temperature;BME280_humidity;BME280_pressure;Samples;Min_cycle;Max_cycle;Signal;HPM_P1;HPM_P2
2022/07/15 00:01:29;;;;;;;13.43;0.60;;;16.10;98.70;;;;;;4431281;32;20501;-62
2022/07/15 00:03:55;;;;;;;0.30;0.30;;;16.00;99.00;;;;;;4444863;32;20065;-62
2022/07/15 00:06:20;;;;;;;0.30;0.30;;;16.10;99.10;;;;;;4444223;32;20073;-62
2022/07/15 00:08:46;;;;;;;0.77;0.50;;;16.20;99.00;;;;;;4445633;32;20523;-62
2022/07/15 00:11:11;;;;;;;0.20;0.20;;;16.10;99.40;;;;;;4444757;32;20061;-62
2022/07/15 00:13:37;;;;;;;0.30;0.30;;;16.10;99.30;;;;;;4444222;32;20074;-62
2022/07/15 00:16:03;;;;;;;0.20;0.20;;;16.10;99.50;;;;;;4444828;32;20097;-62
2022/07/15 00:18:28;;;;;;;0.30;0.30;;;16.10;99.50;;;;;;4443657;32;20491;-62
2022/07/15 00:20:54;;;;;;;0.32;0.32;;;16.20;99.50;;;;;;4440052;32;20549;-62
2022/07/15 00:23:19;;;;;;;0.30;0.30;;;16.20;99.50;;;;;;4424118;32;20116;-62
2022/07/15 00:25:44;;;;;;;0.20;0.20;;;16.20;99.50;;;;;;4437800;32;20106;-62
2022/07/15 00:28:10;;;;;;;0.30;0.30;;;16.10;99.90;;;;;;4431686;32;20064;-62
2022/07/15 00:30:38;;;;;;;0.20;0.20;;;16.00;99.90;;;;;;4430131;32;20065;-62
2022/07/15 00:33:05;;;;;;;0.20;0.20;;;16.00;99.90;;;;;;4419071;32;20556;-62
2022/07/15 00:35:32;;;;;;;0.20;0.20;;;15.90;99.90;;;;;;4414500;32;20060;-63
2022/07/15 00:37:58;;;;;;;0.20;0.20;;;15.80;99.90;;;;;;4429414;32;20128;-62
2022/07/15 00:40:23;;;;;;;0.30;0.30;;;15.80;99.90;;;;;;4414615;32;20082;-62
2022/07/15 00:42:49;;;;;;;0.20;0.20;;;15.70;99.90;;;;;;4415948;32;20507;-63
2022/07/15 00:45:18;;;;;;;0.20;0.20;;;15.60;99.90;;;;;;4408696;32;20072;-62
2022/07/15 00:47:47;;;;;;;0.30;0.30;;;15.60;99.90;;;;;;4453768;32;20065;-62
2022/07/15 00:50:14;;;;;;;0.20;0.20;;;15.60;99.90;;;;;;4458925;32;20430;-62
2022/07/15 00:52:43;;;;;;;0.20;0.20;;;15.60;99.90;;;;;;4437960;32;20085;-62
2022/07/15 00:55:11;;;;;;;1.25;0.68;;;15.60;99.90;;;;;;4448983;32;20111;-62
2022/07/15 00:57:42;;;;;;;0.30;0.30;;;15.60;99.90;;;;;;4430580;32;20109;-62
2022/07/15 01:00:10;;;;;;;0.20;0.20;;;15.60;99.90;;;;;;4429553;32;20049;-63
2022/07/15 01:02:37;;;;;;;0.17;0.17;;;15.60;99.90;;;;;;4424333;32;20065;-62
2022/07/15 01:05:04;;;;;;;0.10;0.10;;;15.60;99.90;;;;;;4444577;32;20065;-62
2022/07/15 01:07:30;;;;;;;0.17;0.17;;;15.50;99.90;;;;;;4430510;32;20065;-62
2022/07/15 01:09:55;;;;;;;0.30;0.30;;;15.50;99.90;;;;;;4443103;32;20416;-62
2022/07/15 01:12:21;;;;;;;0.25;0.25;;;15.50;99.90;;;;;;4429887;32;20072;-62
2022/07/15 01:14:47;;;;;;;0.10;0.10;;;15.50;99.90;;;;;;4445004;32;20073;-63
2022/07/15 01:17:13;;;;;;;0.30;0.30;;;15.40;99.90;;;;;;4445283;32;20061;-62
2022/07/15 01:19:39;;;;;;;0.75;0.52;;;15.40;99.90;;;;;;4447290;32;20406;-62
2022/07/15 01:22:05;;;;;;;0.30;0.30;;;15.30;99.90;;;;;;4416591;32;20065;-62
2022/07/15 01:24:30;;;;;;;0.20;0.20;;;15.30;99.90;;;;;;4415448;32;20084;-62
2022/07/15 01:26:56;;;;;;;0.43;0.40;;;15.30;99.90;;;;;;4440717;32;20077;-62
2022/07/15 01:29:21;;;;;;;0.35;0.35;;;15.30;99.90;;;;;;4431569;32;20077;-62
2022/07/15 01:31:47;;;;;;;1.10;0.75;;;15.30;99.90;;;;;;4432108;32;91856;-62
2022/07/15 01:34:12;;;;;;;1.45;0.52;;;15.30;99.90;;;;;;4447088;32;20061;-62
2022/07/15 01:36:38;;;;;;;0.50;0.50;;;15.20;99.90;;;;;;4446980;32;20092;-63
2022/07/15 01:39:04;;;;;;;0.30;0.30;;;15.30;99.90;;;;;;4432469;32;20065;-62
2022/07/15 01:41:30;;;;;;;0.20;0.20;;;15.20;99.90;;;;;;4433245;32;20052;-62
2022/07/15 01:43:55;;;;;;;0.45;0.45;;;15.10;99.90;;;;;;4446281;32;20053;-62
2022/07/15 01:46:20;;;;;;;6.03;0.90;;;15.00;99.90;;;;;;4446672;32;20123;-62
2022/07/15 01:49:46;;;;;;;0.20;0.20;;;15.00;99.90;;;;;;4432966;32;20427;-62
2022/07/15 01:51:31;;;;;;;0.37;0.37;;;15.10;99.90;;;;;;4423986;32;20805;-62
2022/07/15 01:53:57;;;;;;;0.10;0.10;;;14.90;99.90;;;;;;4431849;32;20172;-62
2022/07/15 01:56:23;;;;;;;0.20;0.20;;;14.90;99.90;;;;;;4427334;32;20077;-62
2022/07/15 01:58:48;;;;;;;0.52;0.40;;;14.90;99.90;;;;;;4431471;32;20062;-62
2022/07/15 02:01:14;;;;;;;0.20;0.20;;;14.90;99.90;;;;;;4430486;32;20132;-62
2022/07/15 02:03:40;;;;;;;0.28;0.22;;;14.90;99.90;;;;;;4431516;32;20161;-62
2022/07/15 02:06:06;;;;;;;0.20;0.20;;;15.00;99.90;;;;;;4430653;32;20069;-62
2022/07/15 02:08:32;;;;;;;1.17;0.73;;;15.00;99.90;;;;;;4417828;32;20529;-62
2022/07/15 02:10:57;;;;;;;0.30;0.30;;;15.00;99.90;;;;;;4431174;32;20074;-62
2022/07/15 02:13:23;;;;;;;0.20;0.20;;;15.00;99.90;;;;;;4431204;32;20073;-63
2022/07/15 02:15:48;;;;;;;0.20;0.20;;;14.80;99.90;;;;;;4416556;32;20068;-62
2022/07/15 02:18:13;;;;;;;0.40;0.40;;;14.80;99.90;;;;;;4430758;32;20128;-62
2022/07/15 02:20:39;;;;;;;0.25;0.25;;;14.70;99.90;;;;;;4426780;32;20594;-62
2022/07/15 02:23:05;;;;;;;0.30;0.25;;;14.70;99.90;;;;;;4409237;32;20082;-62
2022/07/15 02:25:32;;;;;;;0.20;0.20;;;14.60;99.90;;;;;;4407853;32;20513;-62
2022/07/15 02:28:00;;;;;;;1.75;0.75;;;14.70;99.90;;;;;;4440916;32;20065;-62
2022/07/15 02:30:28;;;;;;;0.55;0.55;;;14.60;99.90;;;;;;4423342;32;20572;-62
2022/07/15 02:32:54;;;;;;;0.52;0.43;;;14.50;99.90;;;;;;4416297;32;20513;-62
2022/07/15 02:35:19;;;;;;;0.20;0.20;;;14.60;99.90;;;;;;4416904;32;20057;-62
2022/07/15 02:37:46;;;;;;;0.62;0.30;;;14.60;99.90;;;;;;4415838;32;20583;-62
2022/07/15 02:40:12;;;;;;;0.30;0.30;;;14.60;99.90;;;;;;4436148;32;20081;-62
2022/07/15 02:42:37;;;;;;;0.47;0.47;;;14.50;99.90;;;;;;4417967;32;20077;-62
2022/07/15 02:45:04;;;;;;;0.98;0.40;;;14.50;99.90;;;;;;4445208;32;20060;-62
2022/07/15 02:47:29;;;;;;;0.30;0.30;;;14.50;99.90;;;;;;4445451;32;20406;-62
2022/07/15 02:49:55;;;;;;;0.20;0.20;;;14.50;99.90;;;;;;4446082;32;20057;-62
2022/07/15 02:52:21;;;;;;;0.40;0.40;;;14.40;99.90;;;;;;4426978;32;20501;-62
2022/07/15 02:54:46;;;;;;;0.30;0.30;;;14.50;99.90;;;;;;4415106;32;20134;-62
2022/07/15 02:57:11;;;;;;;0.30;0.30;;;14.30;99.90;;;;;;4443516;32;20140;-62
2022/07/15 02:59:37;;;;;;;2.92;0.52;;;14.30;99.90;;;;;;4429936;32;20069;-62
2022/07/15 03:02:02;;;;;;;0.20;0.20;;;14.40;99.90;;;;;;4430414;32;20115;-62
2022/07/15 03:04:28;;;;;;;0.30;0.30;;;14.40;99.90;;;;;;4430666;32;20101;-62
2022/07/15 03:06:53;;;;;;;0.62;0.62;;;14.50;99.90;;;;;;4416026;32;20074;-62
2022/07/15 03:09:19;;;;;;;0.30;0.30;;;14.40;99.90;;;;;;4430478;32;20508;-62
2022/07/15 03:11:44;;;;;;;0.47;0.45;;;14.40;99.90;;;;;;4430043;32;20074;-62
2022/07/15 03:14:10;;;;;;;13.48;0.93;;;14.30;99.90;;;;;;4430636;32;20061;-62
2022/07/15 03:16:35;;;;;;;0.45;0.30;;;14.20;99.90;;;;;;4429936;32;20139;-62
2022/07/15 03:19:01;;;;;;;0.30;0.30;;;14.30;99.90;;;;;;4430178;32;20069;-63
2022/07/15 03:21:26;;;;;;;3.15;0.82;;;14.30;99.90;;;;;;4420046;32;20167;-62
2022/07/15 03:23:52;;;;;;;0.20;0.20;;;14.30;99.90;;;;;;4411334;32;20069;-62
2022/07/15 03:26:17;;;;;;;0.22;0.22;;;14.30;99.90;;;;;;4442290;32;20069;-62
2022/07/15 03:28:44;;;;;;;0.80;0.80;;;14.30;99.90;;;;;;4443950;32;20065;-64
2022/07/15 03:31:09;;;;;;;1.10;1.00;;;14.20;99.90;;;;;;4431339;32;20070;-62
2022/07/15 03:33:35;;;;;;;0.43;0.40;;;14.20;99.90;;;;;;4444807;32;20141;-62
2022/07/15 03:36:00;;;;;;;0.20;0.20;;;14.10;99.90;;;;;;4445682;32;20081;-62
2022/07/15 03:38:26;;;;;;;0.32;0.32;;;14.10;99.90;;;;;;4445089;32;20089;-62
2022/07/15 03:40:51;;;;;;;0.20;0.20;;;14.20;99.90;;;;;;4433094;32;20086;-63
2022/07/15 03:43:17;;;;;;;1.55;0.80;;;14.20;99.90;;;;;;4443382;32;20068;-62
2022/07/15 03:45:42;;;;;;;0.10;0.10;;;14.20;99.90;;;;;;4444332;32;20483;-62
2022/07/15 03:48:08;;;;;;;0.20;0.20;;;14.20;99.90;;;;;;4444334;32;20136;-62
2022/07/15 03:50:33;;;;;;;0.55;0.40;;;14.20;99.90;;;;;;4441812;32;20094;-62
2022/07/15 03:52:59;;;;;;;0.20;0.20;;;14.30;99.90;;;;;;4423052;32;20069;-62
2022/07/15 03:55:24;;;;;;;0.73;0.73;;;14.40;99.90;;;;;;4434664;32;20120;-62
2022/07/15 03:57:50;;;;;;;0.30;0.30;;;14.40;99.90;;;;;;4442509;32;20116;-63
2022/07/15 04:00:15;;;;;;;0.20;0.20;;;14.50;99.90;;;;;;4415261;32;20434;-62
2022/07/15 04:02:41;;;;;;;0.20;0.20;;;14.40;99.90;;;;;;4430079;32;20081;-62
2022/07/15 04:05:07;;;;;;;0.30;0.30;;;14.30;99.90;;;;;;4416682;32;20116;-62
2022/07/15 04:07:33;;;;;;;3.53;1.10;;;14.40;99.90;;;;;;4427919;32;20086;-63
2022/07/15 04:09:58;;;;;;;0.28;0.28;;;14.40;99.90;;;;;;4431517;32;20085;-62
2022/07/15 04:12:24;;;;;;;0.43;0.43;;;14.40;99.90;;;;;;4415406;32;20089;-62
2022/07/15 04:14:49;;;;;;;0.20;0.20;;;14.50;99.90;;;;;;4438845;32;20506;-63
2022/07/15 04:17:15;;;;;;;0.50;0.50;;;14.40;99.90;;;;;;4415705;32;20162;-62
2022/07/15 04:19:40;;;;;;;9.75;0.45;;;14.30;99.90;;;;;;4429655;32;20490;-62
2022/07/15 04:22:06;;;;;;;4.10;2.15;;;14.30;99.90;;;;;;4399098;32;20080;-62
2022/07/15 04:24:31;;;;;;;14.07;0.50;;;14.20;99.90;;;;;;4411010;32;20474;-63
2022/07/15 04:26:56;;;;;;;0.40;0.40;;;14.20;99.90;;;;;;4428910;32;20061;-63
2022/07/15 04:29:22;;;;;;;0.30;0.30;;;14.30;99.90;;;;;;4441423;32;20069;-63
2022/07/15 04:31:47;;;;;;;0.28;0.28;;;14.20;99.90;;;;;;4440886;32;20078;-63
2022/07/15 04:34:13;;;;;;;18.42;0.52;;;14.30;99.90;;;;;;4429407;32;20447;-63
2022/07/15 04:36:39;;;;;;;0.20;0.20;;;14.20;99.90;;;;;;4415902;32;20131;-63
2022/07/15 04:39:04;;;;;;;0.25;0.25;;;14.20;99.90;;;;;;4428670;32;20136;-62
2022/07/15 04:41:32;;;;;;;0.30;0.30;;;14.20;99.90;;;;;;4418121;32;20061;-62
2022/07/15 04:43:57;;;;;;;0.50;0.50;;;14.30;99.90;;;;;;4429776;32;20089;-63
2022/07/15 04:46:23;;;;;;;0.35;0.35;;;14.30;99.90;;;;;;4434434;32;20066;-63
2022/07/15 04:50:51;;;;;;;0.88;0.65;;;14.40;99.90;;;;;;4442291;32;20105;-62
2022/07/15 04:51:34;;;;;;;0.25;0.25;;;14.50;99.90;;;;;;4405729;32;20085;-62
2022/07/15 04:53:59;;;;;;;0.20;0.20;;;14.60;99.90;;;;;;4411021;32;20066;-62
2022/07/15 04:56:25;;;;;;;0.20;0.20;;;14.70;99.90;;;;;;4436140;32;20532;-63
2022/07/15 04:58:50;;;;;;;2.72;1.12;;;14.90;99.90;;;;;;4426437;32;20073;-62
2022/07/15 05:01:16;;;;;;;0.20;0.20;;;14.70;99.90;;;;;;4433205;32;20064;-62
2022/07/15 05:03:42;;;;;;;0.30;0.30;;;14.80;99.90;;;;;;4420281;32;20082;-63
2022/07/15 05:06:07;;;;;;;0.20;0.20;;;14.90;99.90;;;;;;4427081;32;20065;-62
2022/07/15 05:08:33;;;;;;;5.32;0.70;;;14.90;99.90;;;;;;4425237;32;20149;-63
2022/07/15 05:10:58;;;;;;;0.90;0.52;;;14.80;99.90;;;;;;4421483;32;20078;-62
2022/07/15 05:13:24;;;;;;;0.30;0.30;;;14.80;99.90;;;;;;4424991;32;20545;-62
2022/07/15 05:15:49;;;;;;;0.28;0.28;;;14.80;99.90;;;;;;4428924;32;20168;-63
2022/07/15 05:18:15;;;;;;;0.20;0.20;;;14.80;99.90;;;;;;4420266;32;20082;-62
2022/07/15 05:20:40;;;;;;;0.20;0.20;;;14.80;99.90;;;;;;4419303;32;20097;-63
2022/07/15 05:23:06;;;;;;;0.62;0.43;;;14.90;99.90;;;;;;4403169;32;20583;-62
2022/07/15 05:25:31;;;;;;;0.20;0.20;;;14.80;99.90;;;;;;4423922;32;20498;-63
2022/07/15 05:27:57;;;;;;;4.28;0.80;;;15.00;99.90;;;;;;4430262;32;20077;-63
2022/07/15 05:30:22;;;;;;;0.20;0.20;;;15.10;99.90;;;;;;4434869;32;20069;-63
2022/07/15 05:32:48;;;;;;;0.20;0.20;;;15.10;99.90;;;;;;4419975;32;20553;-62
2022/07/15 05:35:15;;;;;;;1.45;0.45;;;15.20;99.90;;;;;;4424542;32;20136;-63
2022/07/15 05:37:41;;;;;;;0.20;0.20;;;15.30;99.90;;;;;;4428493;32;20069;-63
2022/07/15 05:40:08;;;;;;;0.28;0.28;;;15.40;99.90;;;;;;4428244;32;20057;-63
2022/07/15 05:42:34;;;;;;;0.32;0.32;;;15.40;99.90;;;;;;4424280;32;20501;-63
2022/07/15 05:45:00;;;;;;;0.40;0.40;;;15.40;99.90;;;;;;4433499;32;20062;-63
2022/07/15 05:47:26;;;;;;;0.20;0.20;;;15.40;99.90;;;;;;4441027;32;20065;-63
2022/07/15 05:49:52;;;;;;;1.37;0.85;;;15.40;99.90;;;;;;4429459;32;20562;-63
2022/07/15 05:52:17;;;;;;;0.40;0.40;;;15.40;99.90;;;;;;4411956;32;20072;-63
2022/07/15 05:54:43;;;;;;;0.20;0.20;;;15.40;99.90;;;;;;4413244;32;20086;-63
2022/07/15 05:57:09;;;;;;;0.20;0.20;;;15.40;99.90;;;;;;4443440;32;20065;-63
2022/07/15 05:59:34;;;;;;;0.20;0.20;;;15.40;99.90;;;;;;4443362;32;20540;-63
2022/07/15 06:01:59;;;;;;;12.00;0.47;;;15.40;99.90;;;;;;4433114;32;20073;-61
2022/07/15 06:04:27;;;;;;;0.80;0.80;;;15.50;99.90;;;;;;4438862;32;20073;-62
2022/07/15 06:06:53;;;;;;;0.30;0.30;;;15.50;99.90;;;;;;4420147;32;20064;-62
2022/07/15 06:09:19;;;;;;;0.30;0.30;;;15.40;99.90;;;;;;4445546;32;20489;-63
2022/07/15 06:11:45;;;;;;;0.20;0.20;;;15.50;99.90;;;;;;4444666;32;20567;-62
2022/07/15 06:14:10;;;;;;;0.30;0.30;;;15.60;99.90;;;;;;4434511;32;20065;-62
2022/07/15 06:16:36;;;;;;;0.98;0.40;;;15.70;99.90;;;;;;4439273;32;20127;-63
2022/07/15 06:19:01;;;;;;;0.30;0.30;;;15.70;99.90;;;;;;4446191;32;20077;-62
2022/07/15 06:21:27;;;;;;;0.30;0.30;;;15.80;99.90;;;;;;4436028;32;20073;-62
2022/07/15 06:23:52;;;;;;;0.30;0.30;;;15.80;99.90;;;;;;4424328;32;20119;-63
2022/07/15 06:26:18;;;;;;;0.20;0.20;;;15.90;99.90;;;;;;4441867;32;20524;-62
2022/07/15 06:28:44;;;;;;;0.20;0.20;;;16.00;99.90;;;;;;4446202;32;20136;-62
2022/07/15 06:31:09;;;;;;;0.22;0.22;;;15.90;99.90;;;;;;4438938;32;20081;-62
2022/07/15 06:33:34;;;;;;;0.30;0.30;;;15.90;99.90;;;;;;4436710;32;20128;-63
2022/07/15 06:36:00;;;;;;;4.22;1.85;;;16.10;99.90;;;;;;4445138;32;20077;-63
2022/07/15 06:38:27;;;;;;;1.15;0.55;;;16.10;99.90;;;;;;4445289;32;20072;-63
2022/07/15 06:40:52;;;;;;;0.28;0.28;;;16.00;99.90;;;;;;4445726;32;20078;-63
2022/07/15 06:43:19;;;;;;;1.90;0.45;;;16.00;99.90;;;;;;4437379;32;20061;-62
2022/07/15 06:45:44;;;;;;;0.30;0.30;;;16.00;99.90;;;;;;4435581;32;20527;-64
2022/07/15 06:48:10;;;;;;;0.20;0.20;;;16.10;99.90;;;;;;4446480;32;20116;-64
2022/07/15 06:50:35;;;;;;;4.20;1.48;;;16.10;99.90;;;;;;4443485;32;20844;-64
2022/07/15 06:53:01;;;;;;;0.20;0.20;;;16.20;99.90;;;;;;4424165;32;20085;-64
2022/07/15 06:55:27;;;;;;;0.30;0.30;;;16.20;99.90;;;;;;4436689;32;20116;-64
2022/07/15 06:57:52;;;;;;;0.22;0.22;;;16.30;99.90;;;;;;4444720;32;20073;-64
2022/07/15 07:00:18;;;;;;;0.30;0.30;;;16.30;99.90;;;;;;4441510;32;20508;-63
2022/07/15 07:02:44;;;;;;;0.20;0.20;;;16.20;99.90;;;;;;4434709;32;20424;-63
2022/07/15 07:05:10;;;;;;;4.25;1.55;;;16.40;99.90;;;;;;4441746;32;20422;-63
2022/07/15 07:07:35;;;;;;;0.37;0.37;;;16.50;99.90;;;;;;4443596;32;20080;-63
2022/07/15 07:10:01;;;;;;;0.20;0.20;;;16.60;99.90;;;;;;4460919;32;20405;-63
2022/07/15 07:12:27;;;;;;;0.20;0.20;;;16.60;99.90;;;;;;4441495;32;20434;-63
2022/07/15 07:14:53;;;;;;;1.52;0.93;;;16.70;99.90;;;;;;4446104;32;20102;-63
2022/07/15 07:17:19;;;;;;;0.40;0.40;;;16.60;99.90;;;;;;4442761;32;20516;-63
2022/07/15 07:19:44;;;;;;;0.22;0.22;;;16.40;99.90;;;;;;4444834;32;20081;-63
2022/07/15 07:22:10;;;;;;;0.45;0.45;;;16.30;99.90;;;;;;4429508;32;20070;-63
2022/07/15 07:24:35;;;;;;;0.22;0.22;;;16.40;99.90;;;;;;4427554;32;20077;-63
2022/07/15 07:27:01;;;;;;;1.45;0.80;;;16.50;99.90;;;;;;4445240;32;20402;-63
2022/07/15 07:29:26;;;;;;;0.20;0.20;;;16.40;99.90;;;;;;4431843;32;20076;-64
2022/07/15 07:31:52;;;;;;;1.65;0.95;;;16.50;99.90;;;;;;4433643;32;20169;-63
2022/07/15 07:34:18;;;;;;;0.30;0.30;;;16.50;99.90;;;;;;4420931;32;20097;-63
2022/07/15 07:36:45;;;;;;;0.32;0.32;;;16.50;99.90;;;;;;4415592;32;20128;-63
2022/07/15 07:39:11;;;;;;;0.20;0.20;;;16.50;99.90;;;;;;4415165;32;20093;-63
2022/07/15 07:41:37;;;;;;;0.20;0.20;;;16.60;99.90;;;;;;4415118;32;20073;-64
2022/07/15 07:44:03;;;;;;;3.42;1.17;;;16.90;99.90;;;;;;4417826;32;20084;-64
2022/07/15 07:46:28;;;;;;;0.82;0.43;;;16.90;99.90;;;;;;4436921;32;20119;-64
2022/07/15 07:48:54;;;;;;;0.20;0.20;;;16.90;99.90;;;;;;4445108;32;20068;-64
2022/07/15 07:51:19;;;;;;;2.45;0.88;;;17.10;99.90;;;;;;4437568;32;20135;-63
2022/07/15 07:53:46;;;;;;;0.98;0.52;;;17.10;99.90;;;;;;4424112;32;20084;-64
2022/07/15 07:56:12;;;;;;;0.55;0.55;;;17.30;99.90;;;;;;4440637;32;20061;-64
2022/07/15 07:58:38;;;;;;;0.20;0.20;;;17.50;99.90;;;;;;4444846;32;20372;-64
2022/07/15 08:01:03;;;;;;;0.37;0.37;;;17.60;99.90;;;;;;4436887;32;20088;-63
2022/07/15 08:03:29;;;;;;;0.40;0.40;;;17.70;99.90;;;;;;4434452;32;20102;-64
2022/07/15 08:05:54;;;;;;;2.85;1.15;;;17.70;99.90;;;;;;4443564;32;20808;-64
2022/07/15 08:08:21;;;;;;;0.22;0.22;;;17.60;99.90;;;;;;4430466;32;20065;-63
2022/07/15 08:10:51;;;;;;;0.20;0.20;;;17.40;99.90;;;;;;4443730;32;20078;-64
2022/07/15 08:13:18;;;;;;;0.60;0.60;;;17.40;99.90;;;;;;4436463;32;20068;-64
2022/07/15 08:15:44;;;;;;;0.70;0.62;;;17.40;99.90;;;;;;4419700;32;20181;-63
2022/07/15 08:18:10;;;;;;;0.20;0.20;;;17.40;99.90;;;;;;4430991;32;20081;-64
2022/07/15 08:20:36;;;;;;;0.22;0.22;;;17.50;99.90;;;;;;4442016;32;20522;-64
2022/07/15 08:23:02;;;;;;;3.15;0.85;;;17.70;99.90;;;;;;4409814;32;20918;-64
2022/07/15 08:25:29;;;;;;;0.70;0.70;;;17.60;99.90;;;;;;4434200;32;20065;-63
2022/07/15 08:27:56;;;;;;;0.20;0.20;;;17.40;99.90;;;;;;4430108;32;20541;-63
2022/07/15 08:30:23;;;;;;;3.85;0.90;;;17.30;99.70;;;;;;4441206;32;20057;-63
2022/07/15 08:32:48;;;;;;;0.30;0.30;;;17.40;99.50;;;;;;4406765;32;20069;-61
2022/07/15 08:35:14;;;;;;;0.20;0.20;;;17.50;99.90;;;;;;4431232;32;20124;-63
2022/07/15 08:37:39;;;;;;;0.68;0.68;;;17.40;99.90;;;;;;4429792;32;20072;-64
2022/07/15 08:40:08;;;;;;;0.20;0.20;;;17.20;99.90;;;;;;4428845;32;20085;-64
2022/07/15 08:42:33;;;;;;;0.20;0.20;;;17.00;99.90;;;;;;4422881;32;20153;-63
2022/07/15 08:44:59;;;;;;;0.90;0.47;;;17.00;99.90;;;;;;4417327;32;20077;-63
2022/07/15 08:47:25;;;;;;;0.70;0.60;;;17.00;99.90;;;;;;4426531;32;20172;-64
2022/07/15 08:49:56;;;;;;;0.28;0.28;;;17.00;99.90;;;;;;4428673;32;20070;-64
2022/07/15 08:52:23;;;;;;;0.20;0.20;;;17.20;99.90;;;;;;4384885;32;20517;-64
2022/07/15 08:54:49;;;;;;;0.20;0.20;;;17.30;99.90;;;;;;4419608;32;20081;-63
2022/07/15 08:57:15;;;;;;;1.77;0.88;;;17.40;99.90;;;;;;4444229;32;20062;-63
2022/07/15 08:59:42;;;;;;;5.60;1.17;;;17.40;98.70;;;;;;4443160;32;20479;-63
2022/07/15 09:02:10;;;;;;;0.37;0.37;;;17.20;99.00;;;;;;4433852;32;20136;-63
2022/07/15 09:05:16;;;;;;;0.25;0.25;;;17.20;99.70;;;;;;4423116;32;20060;-63
2022/07/15 09:07:59;;;;;;;0.20;0.20;;;17.40;99.40;;;;;;4424035;32;20329;-63
2022/07/15 09:10:41;;;;;;;2.95;0.47;;;17.50;98.90;;;;;;4443969;32;20092;-63
2022/07/15 09:13:08;;;;;;;0.60;0.60;;;17.70;98.80;;;;;;4434621;32;20061;-62
2022/07/15 09:15:35;;;;;;;0.20;0.20;;;17.90;97.40;;;;;;4431159;32;20085;-62
2022/07/15 09:18:06;;;;;;;0.32;0.30;;;18.00;97.90;;;;;;4444153;32;20057;-62
2022/07/15 09:20:32;;;;;;;0.30;0.30;;;18.00;97.20;;;;;;4442235;32;20533;-62
2022/07/15 09:22:57;;;;;;;0.20;0.20;;;17.90;97.80;;;;;;4422658;32;20081;-62
2022/07/15 09:25:23;;;;;;;0.22;0.22;;;17.80;97.60;;;;;;4434784;32;20065;-63
2022/07/15 09:27:49;;;;;;;1.55;0.40;;;17.70;98.10;;;;;;4416507;32;20074;-63
2022/07/15 09:33:49;;;;;;;0.30;0.30;;;17.70;98.40;;;;;;4419565;32;20085;-62
2022/07/15 09:36:05;;;;;;;0.20;0.20;;;17.60;98.40;;;;;;4430434;32;20094;-63
2022/07/15 09:38:34;;;;;;;0.20;0.20;;;17.70;98.40;;;;;;4431636;32;20062;-63
2022/07/15 09:41:01;;;;;;;0.20;0.20;;;17.60;98.00;;;;;;4433247;32;20065;-63
2022/07/15 09:43:27;;;;;;;0.20;0.20;;;17.60;97.60;;;;;;4416342;32;20065;-62
2022/07/15 09:46:01;;;;;;;0.20;0.20;;;17.80;97.40;;;;;;4407115;32;20090;-63
2022/07/15 09:48:28;;;;;;;1.08;0.62;;;17.90;96.70;;;;;;4430549;32;20065;-63
2022/07/15 09:50:59;;;;;;;0.25;0.25;;;18.00;96.70;;;;;;4427462;32;20555;-63
2022/07/15 09:53:25;;;;;;;0.30;0.30;;;18.10;96.50;;;;;;4396954;32;20061;-62
2022/07/15 09:55:52;;;;;;;0.20;0.20;;;18.20;96.60;;;;;;4437841;32;20081;-63
2022/07/15 09:58:19;;;;;;;0.93;0.47;;;18.10;96.70;;;;;;4433354;32;20073;-63
2022/07/15 10:00:44;;;;;;;1.35;0.80;;;18.20;97.00;;;;;;4414834;32;20524;-62
2022/07/15 10:03:11;;;;;;;0.20;0.20;;;18.50;96.80;;;;;;4420231;32;20511;-62
2022/07/15 10:05:39;;;;;;;0.17;0.17;;;18.70;96.60;;;;;;4444370;32;20142;-63
2022/07/15 10:08:08;;;;;;;0.20;0.20;;;18.70;96.20;;;;;;4422715;32;20447;-62
2022/07/15 10:10:34;;;;;;;0.40;0.40;;;18.40;96.20;;;;;;4430417;32;20062;-63
2022/07/15 10:13:30;;;;;;;1.40;1.05;;;18.30;96.30;;;;;;4421667;32;20061;-63
2022/07/15 10:16:27;;;;;;;0.20;0.20;;;18.10;96.70;;;;;;4422440;32;20081;-62
2022/07/15 10:19:19;;;;;;;0.32;0.32;;;18.00;96.90;;;;;;4435963;32;20058;-64
2022/07/15 10:22:08;;;;;;;0.32;0.32;;;18.10;96.30;;;;;;4424565;32;20065;-63
2022/07/15 10:25:10;;;;;;;0.20;0.20;;;18.10;95.90;;;;;;4416649;32;20076;-63
2022/07/15 10:27:46;;;;;;;0.30;0.30;;;18.50;95.70;;;;;;4434863;32;20397;-63
2022/07/15 10:30:11;;;;;;;0.20;0.20;;;18.90;95.30;;;;;;4428704;32;20419;-63
2022/07/15 10:33:17;;;;;;;0.20;0.20;;;18.70;95.40;;;;;;4432563;32;20082;-62
2022/07/15 10:35:49;;;;;;;0.28;0.28;;;18.70;95.60;;;;;;4423106;32;20060;-63
2022/07/15 10:38:35;;;;;;;0.50;0.50;;;18.70;96.00;;;;;;4438057;32;20066;-63
2022/07/15 10:41:06;;;;;;;0.30;0.30;;;18.80;96.30;;;;;;4420034;32;20075;-64
2022/07/15 10:43:53;;;;;;;0.30;0.30;;;18.80;95.80;;;;;;4419442;32;20082;-63
2022/07/15 10:46:22;;;;;;;0.20;0.20;;;18.80;95.90;;;;;;4424366;32;20497;-63
2022/07/15 10:48:51;;;;;;;1.37;0.60;;;18.60;95.50;;;;;;4430554;32;20081;-63
2022/07/15 10:51:38;;;;;;;0.30;0.30;;;18.50;95.10;;;;;;4424331;32;20801;-65
2022/07/15 10:54:07;;;;;;;0.35;0.35;;;18.30;95.60;;;;;;4415176;32;20085;-63
2022/07/15 10:56:41;;;;;;;0.20;0.20;;;18.30;95.70;;;;;;4430895;32;20064;-62
2022/07/15 10:59:16;;;;;;;0.40;0.40;;;18.50;95.90;;;;;;4445858;32;20077;-62
2022/07/15 11:01:44;;;;;;;0.17;0.17;;;18.80;95.50;;;;;;4421596;32;20466;-63
2022/07/15 11:04:22;;;;;;;0.35;0.35;;;19.10;95.00;;;;;;4409740;32;20065;-62
2022/07/15 11:07:07;;;;;;;0.20;0.20;;;19.40;93.70;;;;;;4446221;32;20061;-62
2022/07/15 11:09:51;;;;;;;0.20;0.20;;;19.70;93.10;;;;;;4445009;32;20084;-63
2022/07/15 11:12:38;;;;;;;0.30;0.30;;;20.10;92.60;;;;;;4415080;32;20085;-62
2022/07/15 11:15:13;;;;;;;0.30;0.30;;;20.20;92.10;;;;;;4412833;32;20065;-63
2022/07/15 11:17:41;;;;;;;0.40;0.40;;;20.10;91.50;;;;;;4414806;32;20077;-63
2022/07/15 11:20:10;;;;;;;0.32;0.32;;;19.90;91.90;;;;;;4416016;32;20074;-63
2022/07/15 11:22:39;;;;;;;0.20;0.20;;;19.80;91.40;;;;;;4396741;32;20077;-62
2022/07/15 11:25:05;;;;;;;0.30;0.30;;;19.60;91.80;;;;;;4417127;32;20069;-63
2022/07/15 11:27:31;;;;;;;0.32;0.32;;;19.30;92.10;;;;;;4430926;32;20462;-63
2022/07/15 11:30:02;;;;;;;0.28;0.28;;;19.30;92.30;;;;;;4414740;32;20074;-63
2022/07/15 11:32:31;;;;;;;0.55;0.40;;;19.40;92.40;;;;;;4402308;32;20086;-63
2022/07/15 11:34:58;;;;;;;0.20;0.20;;;19.40;92.20;;;;;;4422769;32;20069;-63
2022/07/15 11:37:27;;;;;;;0.20;0.20;;;19.50;91.80;;;;;;4429822;32;20070;-63
2022/07/15 11:45:46;;;;;;;0.20;0.20;;;20.10;91.30;;;;;;4400952;32;20077;-62
2022/07/15 11:48:12;;;;;;;0.20;0.20;;;20.10;91.20;;;;;;4430129;32;20085;-62
2022/07/15 11:50:50;;;;;;;0.20;0.20;;;20.10;90.60;;;;;;4413683;32;20065;-63
2022/07/15 11:53:16;;;;;;;0.20;0.20;;;19.90;90.70;;;;;;4395544;32;20069;-62
2022/07/15 11:55:59;;;;;;;0.20;0.20;;;19.80;90.70;;;;;;4420588;32;20085;-63
2022/07/15 11:58:27;;;;;;;0.30;0.30;;;19.60;91.20;;;;;;4444419;32;20081;-63
2022/07/15 12:00:52;;;;;;;0.10;0.10;;;19.50;91.40;;;;;;4424679;32;20144;-63
2022/07/15 12:03:17;;;;;;;0.25;0.25;;;19.50;91.40;;;;;;4433024;32;20080;-62
2022/07/15 12:06:00;;;;;;;0.20;0.20;;;19.70;91.10;;;;;;4442001;32;20073;-62
2022/07/15 12:08:38;;;;;;;0.15;0.15;;;19.80;90.90;;;;;;4445098;32;20080;-63
2022/07/15 12:11:09;;;;;;;0.30;0.30;;;19.90;91.10;;;;;;4417505;32;20112;-63
2022/07/15 12:13:57;;;;;;;5.68;1.27;;;20.00;91.10;;;;;;4433135;32;20592;-62
2022/07/15 12:16:29;;;;;;;0.20;0.20;;;20.20;91.00;;;;;;4395847;32;20390;-63
2022/07/15 12:18:57;;;;;;;0.60;0.55;;;20.40;90.60;;;;;;4429119;32;20086;-63
2022/07/15 12:21:24;;;;;;;0.13;0.13;;;21.10;90.50;;;;;;4420859;32;20132;-63
2022/07/15 12:24:02;;;;;;;1.45;0.95;;;21.80;88.30;;;;;;4407630;32;20082;-62
2022/07/15 12:26:28;;;;;;;0.20;0.20;;;21.70;86.80;;;;;;4412770;32;20065;-62
2022/07/15 12:28:56;;;;;;;0.20;0.20;;;22.00;87.30;;;;;;4415687;32;20100;-63
2022/07/15 12:31:27;;;;;;;0.10;0.10;;;22.00;85.40;;;;;;4420363;32;20116;-63
2022/07/15 12:33:53;;;;;;;0.20;0.20;;;21.60;87.40;;;;;;4403483;32;20057;-63
2022/07/15 12:36:21;;;;;;;1.40;0.70;;;21.20;87.00;;;;;;4428186;32;20120;-63
2022/07/15 12:39:06;;;;;;;0.20;0.20;;;21.00;88.60;;;;;;4429453;32;20528;-63
2022/07/15 12:41:34;;;;;;;0.20;0.20;;;20.80;86.70;;;;;;4418647;32;20069;-62
2022/07/15 12:44:02;;;;;;;0.37;0.37;;;20.60;87.20;;;;;;4419833;32;20194;-62
2022/07/15 12:46:50;;;;;;;0.85;0.35;;;20.50;88.40;;;;;;4436568;32;20180;-63
2022/07/15 12:49:38;;;;;;;1.95;0.75;;;20.40;89.10;;;;;;4419857;32;20500;-63
2022/07/15 12:52:23;;;;;;;0.35;0.22;;;20.20;89.50;;;;;;4417240;32;20085;-62
2022/07/15 12:54:50;;;;;;;0.40;0.40;;;20.20;90.20;;;;;;4414954;32;20072;-62
2022/07/15 12:57:21;;;;;;;0.43;0.43;;;20.40;89.20;;;;;;4443913;32;20069;-63
2022/07/15 12:59:53;;;;;;;0.10;0.10;;;21.10;88.70;;;;;;4443042;32;20156;-62